Pagrindinis puslapis
METAR-TAF:

METAR-TAF

Oro uostai :

Zamboanga, Filipinai

platuma: 06-54N, ilguma: 122-04E, Aukštis: 5 m

Dabartinis oras

Ataskaita buvo paskelbta 1 valandą ir 39 minutes, ne 12:00 UTC
Ramus vėjas
Temperatūra 28°C
Drėgmė 84%
Slėgis 1011 hPa
Matomumas 10 km arba daugiau
Mažai debesys ne aukštis 1700 ft
Su prošvaistėmis ne aukštis 9000 ft

METAR: RPMZ 291200Z 00000KT 9999 FEW017 BKN090 28/25 Q1011 RMK A2985

Laikas: 21:39 (13:39 UTC)

Prognozė

Ataskaita buvo paskelbta 2 valandos ir 39 minutes, ne 11:00 UTC
Prognozė galioja nuo 29 metu 12 UTC su 30 metu 12 UTC
Vėjas 6 kt iš Pietų
Matomumas 10 km arba daugiau
Mažai debesys ne aukštis 1700 ft
Išsisklaidę debesys ne aukštis 9000 ft
Su prošvaistėmis ne aukštis 30000 ft
Laikinai
nuo 29 metu 12 UTC su 29 metu 18 UTC
Vėjas 2 kt nuo kintamojo kryptimis
Mažai debesys ne aukštis 1600 ft, Liūtiniai kamuoliniai debesys.
Su prošvaistėmis ne aukštis 9000 ft

TAF: RPMZ 291100Z 2912/3012 17006KT 9999 FEW017 SCT090 BKN300 TEMPO 2912/2918 VRB02KT FEW016CB BKN090

Orai ataskaitas ir orų prognozės (METAR, TAF).

turimą stotys yra geltonos ir raudonos taškus žemėlapyje.

Perkelti pele per norėdami pamatyti stoties vardą.

Tada spustelėkite, norėdami matyti oro stebėjimo ir prognozės.

Norėdami pakeisti žemėlapį: spustelėkite ant žalios mygtukų su juodo kryžiaus žemyn,; žalią mygtuką su brūkšneliu, jei norite nutolinti; arba žalių rodyklių gretimoms žemėlapius.


METAR-TAF: